sensor_id;sensor_type;location;lat;lon;timestamp;pressure;altitude;pressure_sealevel;temperature;humidity
49825;BME280;35714;55.708;37.478;2022-12-19T00:01:20;100454.38;;;-8.07;60.84
49825;BME280;35714;55.708;37.478;2022-12-19T00:03:47;100441.94;;;-8.19;61.44
49825;BME280;35714;55.708;37.478;2022-12-19T00:06:13;100458.66;;;-8.20;61.68
49825;BME280;35714;55.708;37.478;2022-12-19T00:08:40;100463.41;;;-8.11;61.45
49825;BME280;35714;55.708;37.478;2022-12-19T00:11:06;100456.63;;;-8.15;61.43
49825;BME280;35714;55.708;37.478;2022-12-19T00:13:31;100451.88;;;-8.24;61.72
49825;BME280;35714;55.708;37.478;2022-12-19T00:16:01;100458.31;;;-8.14;61.63
49825;BME280;35714;55.708;37.478;2022-12-19T00:18:26;100451.53;;;-8.18;61.20
49825;BME280;35714;55.708;37.478;2022-12-19T00:20:59;100433.28;;;-8.21;61.20
49825;BME280;35714;55.708;37.478;2022-12-19T00:23:24;100437.97;;;-8.26;61.43
49825;BME280;35714;55.708;37.478;2022-12-19T00:25:50;100439.84;;;-8.28;61.66
49825;BME280;35714;55.708;37.478;2022-12-19T00:28:15;100441.72;;;-8.30;62.01
49825;BME280;35714;55.708;37.478;2022-12-19T00:30:41;100442.28;;;-8.25;61.70
49825;BME280;35714;55.708;37.478;2022-12-19T00:33:06;100444.75;;;-8.22;61.99
49825;BME280;35714;55.708;37.478;2022-12-19T00:35:32;100442.88;;;-8.20;62.19
49825;BME280;35714;55.708;37.478;2022-12-19T00:37:57;100449.47;;;-8.13;62.26
49825;BME280;35714;55.708;37.478;2022-12-19T00:40:23;100447.97;;;-8.17;62.25
49825;BME280;35714;55.708;37.478;2022-12-19T00:42:48;100442.44;;;-8.12;62.52
49825;BME280;35714;55.708;37.478;2022-12-19T00:45:14;100445.72;;;-8.09;62.59
49825;BME280;35714;55.708;37.478;2022-12-19T00:47:40;100451.56;;;-8.04;62.94
49825;BME280;35714;55.708;37.478;2022-12-19T00:50:05;100443.13;;;-7.94;62.71
49825;BME280;35714;55.708;37.478;2022-12-19T00:52:31;100438.44;;;-7.89;62.82
49825;BME280;35714;55.708;37.478;2022-12-19T00:54:56;100442.59;;;-7.85;62.81
49825;BME280;35714;55.708;37.478;2022-12-19T00:57:22;100441.28;;;-7.78;62.76
49825;BME280;35714;55.708;37.478;2022-12-19T00:59:47;100452.75;;;-7.79;63.15
49825;BME280;35714;55.708;37.478;2022-12-19T01:02:13;100442.31;;;-7.81;63.40
49825;BME280;35714;55.708;37.478;2022-12-19T01:04:38;100437.50;;;-7.88;63.63
49825;BME280;35714;55.708;37.478;2022-12-19T01:07:04;100444.47;;;-7.87;63.66
49825;BME280;35714;55.708;37.478;2022-12-19T01:09:33;100435.25;;;-7.80;63.77
49825;BME280;35714;55.708;37.478;2022-12-19T01:11:58;100434.50;;;-7.68;63.94
49825;BME280;35714;55.708;37.478;2022-12-19T01:14:42;100435.47;;;-7.54;63.95
49825;BME280;35714;55.708;37.478;2022-12-19T01:17:08;100426.44;;;-7.50;63.55
49825;BME280;35714;55.708;37.478;2022-12-19T01:19:33;100435.28;;;-7.51;63.61
49825;BME280;35714;55.708;37.478;2022-12-19T01:21:59;100440.66;;;-7.53;63.58
49825;BME280;35714;55.708;37.478;2022-12-19T01:24:24;100437.69;;;-7.63;63.92
49825;BME280;35714;55.708;37.478;2022-12-19T01:26:50;100435.63;;;-7.72;64.11
49825;BME280;35714;55.708;37.478;2022-12-19T01:29:16;100450.31;;;-7.68;64.61
49825;BME280;35714;55.708;37.478;2022-12-19T01:31:41;100438.84;;;-7.67;64.61
49825;BME280;35714;55.708;37.478;2022-12-19T01:34:07;100436.59;;;-7.73;64.59
49825;BME280;35714;55.708;37.478;2022-12-19T01:36:34;100429.91;;;-7.64;64.75
49825;BME280;35714;55.708;37.478;2022-12-19T01:39:00;100436.03;;;-7.64;64.63
49825;BME280;35714;55.708;37.478;2022-12-19T01:41:25;100429.91;;;-7.64;65.00
49825;BME280;35714;55.708;37.478;2022-12-19T01:49:29;100435.94;;;-7.76;65.58
49825;BME280;35714;55.708;37.478;2022-12-19T01:51:56;100431.69;;;-7.79;65.85
49825;BME280;35714;55.708;37.478;2022-12-19T01:54:26;100434.22;;;-7.77;65.82
49825;BME280;35714;55.708;37.478;2022-12-19T01:56:54;100426.22;;;-7.76;65.60
49825;BME280;35714;55.708;37.478;2022-12-19T01:59:23;100426.06;;;-7.73;65.85
49825;BME280;35714;55.708;37.478;2022-12-19T02:01:52;100429.78;;;-7.77;65.63
49825;BME280;35714;55.708;37.478;2022-12-19T02:04:23;100426.06;;;-7.73;65.82
49825;BME280;35714;55.708;37.478;2022-12-19T02:06:50;100429.06;;;-7.65;65.76
49825;BME280;35714;55.708;37.478;2022-12-19T02:09:16;100414.97;;;-7.64;66.01
49825;BME280;35714;55.708;37.478;2022-12-19T02:11:41;100407.44;;;-7.55;66.03
49825;BME280;35714;55.708;37.478;2022-12-19T02:14:07;100404.22;;;-7.46;65.97
49825;BME280;35714;55.708;37.478;2022-12-19T02:16:54;100403.66;;;-7.37;66.06
49825;BME280;35714;55.708;37.478;2022-12-19T02:21:59;100398.75;;;-7.29;66.21
49825;BME280;35714;55.708;37.478;2022-12-19T02:32:50;100393.03;;;-6.94;65.90
49825;BME280;35714;55.708;37.478;2022-12-19T02:38:01;100384.97;;;-6.78;65.63
49825;BME280;35714;55.708;37.478;2022-12-19T02:40:32;100380.69;;;-6.66;65.36
49825;BME280;35714;55.708;37.478;2022-12-19T02:43:00;100384.06;;;-6.64;65.13
49825;BME280;35714;55.708;37.478;2022-12-19T02:45:29;100384.59;;;-6.59;64.98
49825;BME280;35714;55.708;37.478;2022-12-19T02:47:57;100375.94;;;-6.61;64.97
49825;BME280;35714;55.708;37.478;2022-12-19T02:50:24;100366.34;;;-6.62;64.85
49825;BME280;35714;55.708;37.478;2022-12-19T02:52:50;100363.78;;;-6.63;64.86
49825;BME280;35714;55.708;37.478;2022-12-19T02:55:20;100369.94;;;-6.63;64.72
49825;BME280;35714;55.708;37.478;2022-12-19T02:58:11;100373.31;;;-6.61;64.81
49825;BME280;35714;55.708;37.478;2022-12-19T03:09:08;100362.97;;;-6.64;64.38
49825;BME280;35714;55.708;37.478;2022-12-19T03:11:37;100362.75;;;-6.61;64.63
49825;BME280;35714;55.708;37.478;2022-12-19T03:14:11;100364.38;;;-6.58;64.65
49825;BME280;35714;55.708;37.478;2022-12-19T03:16:38;100360.03;;;-6.59;64.65
49825;BME280;35714;55.708;37.478;2022-12-19T03:19:08;100349.91;;;-6.53;64.82
49825;BME280;35714;55.708;37.478;2022-12-19T03:21:39;100352.13;;;-6.46;64.93
49825;BME280;35714;55.708;37.478;2022-12-19T03:24:05;100354.16;;;-6.37;64.30
49825;BME280;35714;55.708;37.478;2022-12-19T03:26:36;100353.94;;;-6.34;64.39
49825;BME280;35714;55.708;37.478;2022-12-19T03:31:28;100355.34;;;-6.41;64.46
49825;BME280;35714;55.708;37.478;2022-12-19T03:33:57;100351.63;;;-6.39;64.63
49825;BME280;35714;55.708;37.478;2022-12-19T03:36:29;100346.97;;;-6.35;64.70
49825;BME280;35714;55.708;37.478;2022-12-19T03:38:57;100342.25;;;-6.30;64.79
49825;BME280;35714;55.708;37.478;2022-12-19T03:41:25;100343.19;;;-6.31;64.63
49825;BME280;35714;55.708;37.478;2022-12-19T03:44:09;100339.63;;;-6.30;64.76
49825;BME280;35714;55.708;37.478;2022-12-19T03:46:37;100327.16;;;-6.28;64.59
49825;BME280;35714;55.708;37.478;2022-12-19T03:49:04;100321.66;;;-6.25;64.82
49825;BME280;35714;55.708;37.478;2022-12-19T03:51:45;100313.22;;;-6.17;64.69
49825;BME280;35714;55.708;37.478;2022-12-19T03:54:32;100308.56;;;-6.13;64.62
49825;BME280;35714;55.708;37.478;2022-12-19T03:57:12;100302.66;;;-6.04;64.51
49825;BME280;35714;55.708;37.478;2022-12-19T04:02:12;100328.28;;;-5.93;64.31
49825;BME280;35714;55.708;37.478;2022-12-19T04:04:39;100315.91;;;-5.93;64.15
49825;BME280;35714;55.708;37.478;2022-12-19T04:07:13;100335.88;;;-5.89;64.11
49825;BME280;35714;55.708;37.478;2022-12-19T04:09:40;100324.03;;;-5.96;64.21
49825;BME280;35714;55.708;37.478;2022-12-19T04:12:40;100315.75;;;-6.03;64.45
49825;BME280;35714;55.708;37.478;2022-12-19T04:14:58;100308.34;;;-6.10;64.50
49825;BME280;35714;55.708;37.478;2022-12-19T04:17:26;100303.28;;;-6.13;64.78
49825;BME280;35714;55.708;37.478;2022-12-19T04:19:58;100289.78;;;-6.22;64.96
49825;BME280;35714;55.708;37.478;2022-12-19T04:22:26;100300.34;;;-6.22;64.93
49825;BME280;35714;55.708;37.478;2022-12-19T04:24:54;100309.19;;;-6.23;64.94
49825;BME280;35714;55.708;37.478;2022-12-19T04:27:21;100293.16;;;-6.20;65.10
49825;BME280;35714;55.708;37.478;2022-12-19T04:29:47;100300.34;;;-6.22;65.22
49825;BME280;35714;55.708;37.478;2022-12-19T04:32:15;100303.50;;;-6.17;64.99
49825;BME280;35714;55.708;37.478;2022-12-19T04:34:41;100324.41;;;-6.13;65.04
49825;BME280;35714;55.708;37.478;2022-12-19T04:37:07;100315.97;;;-6.19;65.09
49825;BME280;35714;55.708;37.478;2022-12-19T04:39:32;100315.22;;;-6.08;65.04
49825;BME280;35714;55.708;37.478;2022-12-19T04:41:58;100318.50;;;-6.04;64.85
49825;BME280;35714;55.708;37.478;2022-12-19T04:44:24;100316.78;;;-6.05;65.05
49825;BME280;35714;55.708;37.478;2022-12-19T04:46:49;100327.91;;;-6.00;65.34
49825;BME280;35714;55.708;37.478;2022-12-19T04:49:15;100324.69;;;-5.92;65.04
49825;BME280;35714;55.708;37.478;2022-12-19T04:51:40;100322.41;;;-5.97;65.16
49825;BME280;35714;55.708;37.478;2022-12-19T04:54:06;100316.13;;;-5.96;65.05
49825;BME280;35714;55.708;37.478;2022-12-19T04:56:31;100321.19;;;-5.93;65.36
49825;BME280;35714;55.708;37.478;2022-12-19T04:58:57;100324.59;;;-5.91;65.22
49825;BME280;35714;55.708;37.478;2022-12-19T05:01:23;100327.97;;;-5.89;65.20
49825;BME280;35714;55.708;37.478;2022-12-19T05:03:49;100326.81;;;-5.85;65.38
49825;BME280;35714;55.708;37.478;2022-12-19T05:06:14;100326.47;;;-5.80;65.63
49825;BME280;35714;55.708;37.478;2022-12-19T05:08:40;100323.19;;;-5.84;65.30
49825;BME280;35714;55.708;37.478;2022-12-19T05:11:07;100314.22;;;-5.81;65.29
49825;BME280;35714;55.708;37.478;2022-12-19T05:13:33;100324.69;;;-5.80;65.60
49825;BME280;35714;55.708;37.478;2022-12-19T05:16:00;100323.81;;;-5.80;65.49
49825;BME280;35714;55.708;37.478;2022-12-19T05:18:27;100314.13;;;-5.80;65.58
49825;BME280;35714;55.708;37.478;2022-12-19T05:20:52;100327.09;;;-5.76;65.71
49825;BME280;35714;55.708;37.478;2022-12-19T05:23:18;100330.06;;;-5.68;65.67
49825;BME280;35714;55.708;37.478;2022-12-19T05:25:43;100314.41;;;-5.71;65.48
49825;BME280;35714;55.708;37.478;2022-12-19T05:28:09;100308.69;;;-5.65;65.60
49825;BME280;35714;55.708;37.478;2022-12-19T05:30:34;100310.63;;;-5.67;65.94
49825;BME280;35714;55.708;37.478;2022-12-19T05:33:00;100312.59;;;-5.71;65.84
49825;BME280;35714;55.708;37.478;2022-12-19T05:35:26;100306.34;;;-5.57;65.71
49825;BME280;35714;55.708;37.478;2022-12-19T05:37:51;100308.44;;;-5.49;66.14
49825;BME280;35714;55.708;37.478;2022-12-19T05:40:17;100310.16;;;-5.48;65.79
49825;BME280;35714;55.708;37.478;2022-12-19T05:42:42;100312.69;;;-5.47;65.95
49825;BME280;35714;55.708;37.478;2022-12-19T05:45:10;100310.75;;;-5.45;65.59
49825;BME280;35714;55.708;37.478;2022-12-19T05:47:36;100305.25;;;-5.41;65.89
49825;BME280;35714;55.708;37.478;2022-12-19T05:50:02;100317.00;;;-5.46;65.85
49825;BME280;35714;55.708;37.478;2022-12-19T05:52:28;100301.47;;;-5.50;66.25
49825;BME280;35714;55.708;37.478;2022-12-19T05:54:54;100305.91;;;-5.51;65.82
49825;BME280;35714;55.708;37.478;2022-12-19T05:57:20;100308.22;;;-5.46;65.91
49825;BME280;35714;55.708;37.478;2022-12-19T05:59:45;100286.91;;;-5.56;66.19
49825;BME280;35714;55.708;37.478;2022-12-19T06:02:11;100284.34;;;-5.45;66.51
49825;BME280;35714;55.708;37.478;2022-12-19T06:04:39;100298.69;;;-5.36;66.34
49825;BME280;35714;55.708;37.478;2022-12-19T06:07:05;100293.81;;;-5.29;66.36
49825;BME280;35714;55.708;37.478;2022-12-19T06:09:30;100297.16;;;-5.27;66.09
49825;BME280;35714;55.708;37.478;2022-12-19T06:11:56;100320.53;;;-5.21;65.91
49825;BME280;35714;55.708;37.478;2022-12-19T06:14:21;100318.72;;;-5.20;65.88
49825;BME280;35714;55.708;37.478;2022-12-19T06:16:47;100316.94;;;-5.20;65.27
49825;BME280;35714;55.708;37.478;2022-12-19T06:19:12;100325.81;;;-5.21;65.55
49825;BME280;35714;55.708;37.478;2022-12-19T06:21:38;100321.03;;;-5.16;65.47
49825;BME280;35714;55.708;37.478;2022-12-19T06:24:04;100334.25;;;-5.16;65.48
49825;BME280;35714;55.708;37.478;2022-12-19T06:26:29;100324.63;;;-5.17;65.78
49825;BME280;35714;55.708;37.478;2022-12-19T06:28:56;100328.22;;;-5.18;65.74
49825;BME280;35714;55.708;37.478;2022-12-19T06:31:22;100329.47;;;-5.11;65.44
49825;BME280;35714;55.708;37.478;2022-12-19T06:33:48;100339.03;;;-5.21;65.35
49825;BME280;35714;55.708;37.478;2022-12-19T06:38:46;100337.31;;;-5.09;65.46
49825;BME280;35714;55.708;37.478;2022-12-19T06:41:12;100315.50;;;-5.13;65.63
49825;BME280;35714;55.708;37.478;2022-12-19T06:43:56;100326.94;;;-5.12;65.36
49825;BME280;35714;55.708;37.478;2022-12-19T06:46:22;100334.25;;;-5.16;65.63
49825;BME280;35714;55.708;37.478;2022-12-19T06:48:47;100319.56;;;-5.20;66.29
49825;BME280;35714;55.708;37.478;2022-12-19T06:51:13;100325.38;;;-5.15;65.77
49825;BME280;35714;55.708;37.478;2022-12-19T06:53:39;100336.88;;;-5.16;65.58
49825;BME280;35714;55.708;37.478;2022-12-19T06:56:04;100312.03;;;-5.13;65.81
49825;BME280;35714;55.708;37.478;2022-12-19T06:58:31;100317.47;;;-5.03;65.88
49825;BME280;35714;55.708;37.478;2022-12-19T07:00:57;100307.66;;;-5.01;65.64
49825;BME280;35714;55.708;37.478;2022-12-19T07:03:24;100304.75;;;-4.98;65.50
49825;BME280;35714;55.708;37.478;2022-12-19T07:05:51;100306.72;;;-4.89;65.17
49825;BME280;35714;55.708;37.478;2022-12-19T07:08:17;100294.47;;;-4.90;65.38
49825;BME280;35714;55.708;37.478;2022-12-19T07:10:42;100292.31;;;-4.85;65.43
49825;BME280;35714;55.708;37.478;2022-12-19T07:13:08;100293.28;;;-4.86;65.62
49825;BME280;35714;55.708;37.478;2022-12-19T07:15:34;100294.03;;;-4.84;65.47
49825;BME280;35714;55.708;37.478;2022-12-19T07:18:00;100294.84;;;-4.83;65.45
49825;BME280;35714;55.708;37.478;2022-12-19T07:20:26;100311.28;;;-4.91;65.77
49825;BME280;35714;55.708;37.478;2022-12-19T07:22:52;100296.09;;;-4.76;65.23
49825;BME280;35714;55.708;37.478;2022-12-19T07:25:18;100307.38;;;-4.85;65.55
49825;BME280;35714;55.708;37.478;2022-12-19T07:27:43;100310.72;;;-4.83;66.00
49825;BME280;35714;55.708;37.478;2022-12-19T07:30:09;100312.31;;;-4.81;65.72
49825;BME280;35714;55.708;37.478;2022-12-19T07:32:35;100309.22;;;-4.75;65.91
49825;BME280;35714;55.708;37.478;2022-12-19T07:35:00;100324.59;;;-4.68;65.49
49825;BME280;35714;55.708;37.478;2022-12-19T07:37:28;100330.41;;;-4.63;65.29
49825;BME280;35714;55.708;37.478;2022-12-19T07:39:54;100328.63;;;-4.51;65.26
49825;BME280;35714;55.708;37.478;2022-12-19T07:42:19;100328.97;;;-4.56;65.01
49825;BME280;35714;55.708;37.478;2022-12-19T07:44:45;100327.09;;;-4.54;65.43
49825;BME280;35714;55.708;37.478;2022-12-19T07:47:11;100337.22;;;-4.48;65.14
49825;BME280;35714;55.708;37.478;2022-12-19T07:49:36;100326.00;;;-4.51;65.22
49825;BME280;35714;55.708;37.478;2022-12-19T07:52:02;100329.16;;;-4.46;65.25
49825;BME280;35714;55.708;37.478;2022-12-19T07:54:27;100317.59;;;-4.45;65.49
49825;BME280;35714;55.708;37.478;2022-12-19T07:56:53;100318.94;;;-4.40;65.38
49825;BME280;35714;55.708;37.478;2022-12-19T07:59:18;100319.16;;;-4.43;65.43
49825;BME280;35714;55.708;37.478;2022-12-19T08:01:44;100312.41;;;-4.47;65.61
49825;BME280;35714;55.708;37.478;2022-12-19T08:04:09;100328.06;;;-4.44;66.12
49825;BME280;35714;55.708;37.478;2022-12-19T08:06:35;100321.47;;;-4.38;65.71
49825;BME280;35714;55.708;37.478;2022-12-19T08:09:00;100316.53;;;-4.31;65.93
49825;BME280;35714;55.708;37.478;2022-12-19T08:11:26;100315.25;;;-4.26;65.69
49825;BME280;35714;55.708;37.478;2022-12-19T08:13:53;100307.56;;;-4.18;65.52
49825;BME280;35714;55.708;37.478;2022-12-19T08:16:19;100309.63;;;-4.10;65.46
49825;BME280;35714;55.708;37.478;2022-12-19T08:18:45;100317.78;;;-4.13;65.28
49825;BME280;35714;55.708;37.478;2022-12-19T08:21:12;100311.28;;;-4.09;65.49
49825;BME280;35714;55.708;37.478;2022-12-19T08:23:37;100309.50;;;-3.97;65.15
49825;BME280;35714;55.708;37.478;2022-12-19T08:26:04;100297.34;;;-3.88;64.91
49825;BME280;35714;55.708;37.478;2022-12-19T08:28:34;100295.91;;;-3.92;65.08
49825;BME280;35714;55.708;37.478;2022-12-19T08:31:10;100302.38;;;-3.85;65.12
49825;BME280;35714;55.708;37.478;2022-12-19T08:33:36;100302.66;;;-3.88;65.14
49825;BME280;35714;55.708;37.478;2022-12-19T08:36:09;100293.34;;;-3.83;64.88
49825;BME280;35714;55.708;37.478;2022-12-19T08:38:36;100300.72;;;-3.86;65.13
49825;BME280;35714;55.708;37.478;2022-12-19T08:41:02;100296.25;;;-3.86;64.92
49825;BME280;35714;55.708;37.478;2022-12-19T08:43:28;100290.72;;;-3.83;65.05
49825;BME280;35714;55.708;37.478;2022-12-19T08:45:55;100307.72;;;-3.74;64.83
49825;BME280;35714;55.708;37.478;2022-12-19T08:48:20;100292.16;;;-3.78;64.67
49825;BME280;35714;55.708;37.478;2022-12-19T08:50:50;100311.06;;;-3.83;65.06
49825;BME280;35714;55.708;37.478;2022-12-19T08:53:15;100300.94;;;-3.67;65.22
49825;BME280;35714;55.708;37.478;2022-12-19T08:55:41;100296.13;;;-3.73;65.54
49825;BME280;35714;55.708;37.478;2022-12-19T08:58:06;100300.00;;;-3.77;65.84
49825;BME280;35714;55.708;37.478;2022-12-19T09:00:32;100290.34;;;-3.67;65.76
49825;BME280;35714;55.708;37.478;2022-12-19T09:02:58;100299.03;;;-3.65;65.51
49825;BME280;35714;55.708;37.478;2022-12-19T09:05:24;100294.19;;;-3.59;65.48
49825;BME280;35714;55.708;37.478;2022-12-19T09:07:49;100287.44;;;-3.64;65.33
49825;BME280;35714;55.708;37.478;2022-12-19T09:10:15;100285.03;;;-3.44;64.46
49825;BME280;35714;55.708;37.478;2022-12-19T09:12:40;100290.81;;;-3.50;64.75
49825;BME280;35714;55.708;37.478;2022-12-19T09:15:06;100291.66;;;-3.50;64.96
49825;BME280;35714;55.708;37.478;2022-12-19T09:17:31;100289.59;;;-3.46;64.81
49825;BME280;35714;55.708;37.478;2022-12-19T09:19:57;100293.44;;;-3.39;64.77
49825;BME280;35714;55.708;37.478;2022-12-19T09:22:24;100291.25;;;-3.34;64.47
49825;BME280;35714;55.708;37.478;2022-12-19T09:24:50;100287.91;;;-3.36;64.74
49825;BME280;35714;55.708;37.478;2022-12-19T09:27:15;100290.50;;;-3.24;64.45
49825;BME280;35714;55.708;37.478;2022-12-19T09:29:41;100291.72;;;-3.29;64.50
49825;BME280;35714;55.708;37.478;2022-12-19T09:32:07;100294.38;;;-3.29;64.69
49825;BME280;35714;55.708;37.478;2022-12-19T09:34:33;100295.72;;;-3.34;65.16
49825;BME280;35714;55.708;37.478;2022-12-19T09:37:00;100297.75;;;-3.27;64.81
49825;BME280;35714;55.708;37.478;2022-12-19T09:39:26;100284.72;;;-3.18;64.60
49825;BME280;35714;55.708;37.478;2022-12-19T09:47:09;100288.06;;;-3.05;64.38
49825;BME280;35714;55.708;37.478;2022-12-19T09:49:39;100291.69;;;-3.06;64.47
49825;BME280;35714;55.708;37.478;2022-12-19T09:52:24;100284.91;;;-3.10;64.85
49825;BME280;35714;55.708;37.478;2022-12-19T09:55:33;100293.81;;;-3.00;64.58
49825;BME280;35714;55.708;37.478;2022-12-19T09:57:48;100292.72;;;-2.97;64.77
49825;BME280;35714;55.708;37.478;2022-12-19T10:00:17;100293.06;;;-2.91;64.68
49825;BME280;35714;55.708;37.478;2022-12-19T10:02:47;100289.91;;;-2.84;64.72
49825;BME280;35714;55.708;37.478;2022-12-19T10:05:16;100287.47;;;-2.76;64.72
49825;BME280;35714;55.708;37.478;2022-12-19T10:07:43;100293.47;;;-2.74;64.59
49825;BME280;35714;55.708;37.478;2022-12-19T10:10:16;100293.47;;;-2.74;64.38
49825;BME280;35714;55.708;37.478;2022-12-19T10:30:37;100288.16;;;-2.74;64.36
49825;BME280;35714;55.708;37.478;2022-12-19T10:33:09;100288.75;;;-2.70;64.26
49825;BME280;35714;55.708;37.478;2022-12-19T10:35:40;100285.31;;;-2.82;64.55
49825;BME280;35714;55.708;37.478;2022-12-19T10:45:49;100292.91;;;-2.78;65.05
49825;BME280;35714;55.708;37.478;2022-12-19T10:48:17;100292.38;;;-2.72;64.97
49825;BME280;35714;55.708;37.478;2022-12-19T10:50:43;100298.84;;;-2.64;64.98
49825;BME280;35714;55.708;37.478;2022-12-19T10:53:09;100293.47;;;-2.74;64.93
49825;BME280;35714;55.708;37.478;2022-12-19T10:55:43;100306.75;;;-2.74;65.36
49825;BME280;35714;55.708;37.478;2022-12-19T10:58:25;100306.88;;;-2.76;65.27
49825;BME280;35714;55.708;37.478;2022-12-19T11:03:19;100299.88;;;-2.77;65.47
49825;BME280;35714;55.708;37.478;2022-12-19T11:05:49;100293.84;;;-2.79;65.57
49825;BME280;35714;55.708;37.478;2022-12-19T11:08:19;100296.13;;;-2.74;65.57
49825;BME280;35714;55.708;37.478;2022-12-19T11:15:48;100309.31;;;-2.84;65.83
49825;BME280;35714;55.708;37.478;2022-12-19T11:18:14;100300.59;;;-2.75;65.80
49825;BME280;35714;55.708;37.478;2022-12-19T11:20:51;100303.38;;;-2.76;65.58
49825;BME280;35714;55.708;37.478;2022-12-19T11:23:17;100305.06;;;-2.75;65.51
49825;BME280;35714;55.708;37.478;2022-12-19T11:25:43;100307.03;;;-2.88;65.97
49825;BME280;35714;55.708;37.478;2022-12-19T11:28:17;100292.56;;;-2.84;66.10
49825;BME280;35714;55.708;37.478;2022-12-19T11:30:44;100303.19;;;-2.84;66.35
49825;BME280;35714;55.708;37.478;2022-12-19T11:33:19;100304.34;;;-2.77;65.90
49825;BME280;35714;55.708;37.478;2022-12-19T11:35:46;100321.38;;;-2.80;65.87
49825;BME280;35714;55.708;37.478;2022-12-19T11:38:13;100314.97;;;-2.77;66.10
49825;BME280;35714;55.708;37.478;2022-12-19T11:40:44;100328.44;;;-2.69;65.88
49825;BME280;35714;55.708;37.478;2022-12-19T11:53:32;100325.91;;;-2.70;65.98
49825;BME280;35714;55.708;37.478;2022-12-19T11:56:00;100324.00;;;-2.68;66.06
49825;BME280;35714;55.708;37.478;2022-12-19T11:58:29;100320.47;;;-2.69;66.18
49825;BME280;35714;55.708;37.478;2022-12-19T12:03:37;100320.22;;;-2.66;65.56
49825;BME280;35714;55.708;37.478;2022-12-19T12:06:11;100322.88;;;-2.66;66.10
49825;BME280;35714;55.708;37.478;2022-12-19T12:08:57;100323.13;;;-2.69;66.02
49825;BME280;35714;55.708;37.478;2022-12-19T12:11:47;100329.03;;;-2.65;66.02
49825;BME280;35714;55.708;37.478;2022-12-19T12:16:43;100333.34;;;-2.53;65.78
49825;BME280;35714;55.708;37.478;2022-12-19T12:26:57;100333.91;;;-2.49;65.92
49825;BME280;35714;55.708;37.478;2022-12-19T12:29:43;100340.63;;;-2.45;65.97
49825;BME280;35714;55.708;37.478;2022-12-19T12:45:38;100366.69;;;-2.39;66.08
49825;BME280;35714;55.708;37.478;2022-12-19T12:48:18;100370.06;;;-2.37;66.21
49825;BME280;35714;55.708;37.478;2022-12-19T12:50:45;100375.84;;;-2.32;66.29
49825;BME280;35714;55.708;37.478;2022-12-19T12:53:12;100376.03;;;-2.24;65.89
49825;BME280;35714;55.708;37.478;2022-12-19T12:55:40;100368.94;;;-2.23;66.21
49825;BME280;35714;55.708;37.478;2022-12-19T13:01:06;100361.78;;;-2.23;66.13
49825;BME280;35714;55.708;37.478;2022-12-19T13:03:51;100377.47;;;-2.20;66.18
49825;BME280;35714;55.708;37.478;2022-12-19T13:06:25;100378.63;;;-2.12;66.21
49825;BME280;35714;55.708;37.478;2022-12-19T13:08:52;100372.84;;;-2.18;66.43
49825;BME280;35714;55.708;37.478;2022-12-19T13:16:52;100386.22;;;-2.08;66.56
49825;BME280;35714;55.708;37.478;2022-12-19T13:19:25;100369.69;;;-2.11;66.47
49825;BME280;35714;55.708;37.478;2022-12-19T13:24:48;100383.69;;;-2.09;66.61
49825;BME280;35714;55.708;37.478;2022-12-19T13:32:24;100396.56;;;-2.05;66.45
49825;BME280;35714;55.708;37.478;2022-12-19T13:34:59;100392.19;;;-1.94;66.60
49825;BME280;35714;55.708;37.478;2022-12-19T13:37:30;100390.09;;;-1.91;66.19
49825;BME280;35714;55.708;37.478;2022-12-19T13:42:25;100397.94;;;-1.89;66.61
49825;BME280;35714;55.708;37.478;2022-12-19T13:47:40;100402.03;;;-1.85;66.56
49825;BME280;35714;55.708;37.478;2022-12-19T13:52:41;100410.06;;;-1.75;66.21
49825;BME280;35714;55.708;37.478;2022-12-19T13:55:12;100413.81;;;-1.78;66.58
49825;BME280;35714;55.708;37.478;2022-12-19T13:57:39;100397.94;;;-1.68;66.16
49825;BME280;35714;55.708;37.478;2022-12-19T14:00:08;100408.72;;;-1.70;66.08
49825;BME280;35714;55.708;37.478;2022-12-19T14:02:36;100409.97;;;-1.64;65.99
49825;BME280;35714;55.708;37.478;2022-12-19T14:05:02;100402.97;;;-1.65;65.96
49825;BME280;35714;55.708;37.478;2022-12-19T14:09:53;100413.03;;;-1.69;66.46
49825;BME280;35714;55.708;37.478;2022-12-19T14:12:26;100417.00;;;-1.63;66.38
49825;BME280;35714;55.708;37.478;2022-12-19T14:15:26;100421.16;;;-1.70;66.39
49825;BME280;35714;55.708;37.478;2022-12-19T14:17:53;100422.06;;;-1.60;66.13
49825;BME280;35714;55.708;37.478;2022-12-19T14:20:25;100417.31;;;-1.56;66.43
49825;BME280;35714;55.708;37.478;2022-12-19T14:22:58;100426.59;;;-1.51;66.18
49825;BME280;35714;55.708;37.478;2022-12-19T14:25:25;100418.13;;;-1.56;66.07
49825;BME280;35714;55.708;37.478;2022-12-19T14:27:56;100430.47;;;-1.55;66.39
49825;BME280;35714;55.708;37.478;2022-12-19T14:30:23;100430.47;;;-1.55;66.39
49825;BME280;35714;55.708;37.478;2022-12-19T14:32:52;100425.16;;;-1.55;66.20
49825;BME280;35714;55.708;37.478;2022-12-19T14:35:22;100428.78;;;-1.56;66.36
49825;BME280;35714;55.708;37.478;2022-12-19T14:37:48;100432.69;;;-1.60;66.71
49825;BME280;35714;55.708;37.478;2022-12-19T14:40:23;100431.44;;;-1.56;66.51
49825;BME280;35714;55.708;37.478;2022-12-19T14:42:50;100437.22;;;-1.51;66.66
49825;BME280;35714;55.708;37.478;2022-12-19T14:45:39;100419.56;;;-1.52;66.51
49825;BME280;35714;55.708;37.478;2022-12-19T14:50:48;100433.56;;;-1.50;66.60
49825;BME280;35714;55.708;37.478;2022-12-19T14:53:18;100431.66;;;-1.48;66.62
49825;BME280;35714;55.708;37.478;2022-12-19T14:55:44;100422.66;;;-1.47;66.82
49825;BME280;35714;55.708;37.478;2022-12-19T14:58:17;100433.47;;;-1.38;66.66
49825;BME280;35714;55.708;37.478;2022-12-19T15:00:47;100433.09;;;-1.34;66.47
49825;BME280;35714;55.708;37.478;2022-12-19T15:03:15;100437.84;;;-1.37;66.67
49825;BME280;35714;55.708;37.478;2022-12-19T15:05:42;100448.22;;;-1.34;66.92